SKL9 NZWR-NZKT

Flight info

Callsign SKL9
Flight time N/A
Altitude 8000
Route SF H140 RUATO
Aircraft BE9L/L-SBDFGRY/SB1

Departure

Time 2026-04-16 23:34
Airport Whangarei Airport (NZWR)

Arrival

Time N/A
Airport Kaitaia Airport (NZKT)
Time Latitude Longitude Altitude Speed Heading
2026-04-16 23:30 -35.76796 174.36446 124 ft 0 kts 284°
2026-04-16 23:31 -35.76796 174.36443 124 ft 1 kts 266°
2026-04-16 23:31 -35.76805 174.36455 125 ft 7 kts 105°
2026-04-16 23:31 -35.76888 174.36487 128 ft 18 kts 214°
2026-04-16 23:31 -35.76920 174.36298 127 ft 31 kts 268°
2026-04-16 23:32 -35.76957 174.35999 124 ft 35 kts 263°
2026-04-16 23:32 -35.76973 174.35843 130 ft 2 kts 262°
2026-04-16 23:32 -35.76974 174.35773 132 ft 8 kts 271°
2026-04-16 23:32 -35.76986 174.35776 131 ft 3 kts 69°
2026-04-16 23:33 -35.76971 174.35894 128 ft 30 kts 81°
2026-04-16 23:33 -35.76907 174.36412 128 ft 95 kts 81°
2026-04-16 23:33 -35.76780 174.37407 313 ft 133 kts 83°
2026-04-16 23:33 -35.76658 174.38628 680 ft 155 kts 85°
2026-04-16 23:34 -35.76765 174.40018 1072 ft 172 kts 98°
2026-04-16 23:34 -35.77190 174.41436 1474 ft 184 kts 129°
2026-04-16 23:34 -35.78163 174.42465 1905 ft 186 kts 158°
2026-04-16 23:34 -35.79409 174.42770 2345 ft 187 kts 187°
2026-04-16 23:35 -35.80627 174.42279 2792 ft 185 kts 216°
2026-04-16 23:35 -35.81487 174.41131 3237 ft 184 kts 244°
2026-04-16 23:35 -35.81785 174.39615 3683 ft 185 kts 271°
2026-04-16 23:35 -35.81444 174.38093 4130 ft 187 kts 297°
2026-04-16 23:36 -35.80801 174.36686 4574 ft 191 kts 298°
2026-04-16 23:36 -35.80140 174.35262 5015 ft 192 kts 298°
2026-04-16 23:36 -35.79474 174.33824 5444 ft 194 kts 298°
2026-04-16 23:36 -35.78806 174.32379 5880 ft 195 kts 299°
2026-04-16 23:37 -35.78136 174.30927 6312 ft 195 kts 299°
2026-04-16 23:37 -35.77464 174.29474 6726 ft 195 kts 298°
2026-04-16 23:37 -35.76796 174.28028 7135 ft 194 kts 299°
2026-04-16 23:37 -35.76123 174.26573 7555 ft 197 kts 299°
2026-04-16 23:38 -35.75440 174.25098 7931 ft 201 kts 299°
2026-04-16 23:38 -35.74725 174.23552 8032 ft 214 kts 299°
2026-04-16 23:38 -35.73968 174.21921 8052 ft 224 kts 299°
2026-04-16 23:38 -35.73180 174.20225 8058 ft 231 kts 299°
2026-04-16 23:39 -35.72377 174.18495 8051 ft 234 kts 299°
2026-04-16 23:39 -35.71566 174.16747 8048 ft 236 kts 299°
2026-04-16 23:39 -35.70752 174.14993 8054 ft 237 kts 299°
2026-04-16 23:39 -35.69936 174.13235 8055 ft 237 kts 299°
2026-04-16 23:40 -35.69116 174.11473 8049 ft 237 kts 299°
2026-04-16 23:40 -35.68296 174.09709 8056 ft 238 kts 299°
2026-04-16 23:40 -35.67451 174.07961 8052 ft 237 kts 305°
2026-04-16 23:40 -35.66348 174.06456 8052 ft 237 kts 312°
2026-04-16 23:41 -35.65204 174.04986 8059 ft 238 kts 312°
2026-04-16 23:41 -35.64066 174.03502 8054 ft 239 kts 312°
2026-04-16 23:41 -35.62926 174.02005 8057 ft 241 kts 311°
2026-04-16 23:41 -35.61783 174.00505 8055 ft 240 kts 312°
2026-04-16 23:42 -35.60641 173.99009 8048 ft 240 kts 311°
2026-04-16 23:42 -35.59498 173.97517 8043 ft 240 kts 312°
2026-04-16 23:42 -35.58354 173.96020 8042 ft 241 kts 312°
2026-04-16 23:42 -35.57207 173.94521 8039 ft 241 kts 312°
2026-04-16 23:43 -35.56060 173.93023 8045 ft 241 kts 312°
2026-04-16 23:43 -35.54915 173.91526 8047 ft 241 kts 312°
2026-04-16 23:43 -35.53769 173.90031 8048 ft 240 kts 311°
2026-04-16 23:43 -35.52624 173.88537 8046 ft 240 kts 311°
2026-04-16 23:44 -35.51478 173.87042 8045 ft 240 kts 311°
2026-04-16 23:44 -35.50330 173.85546 8047 ft 240 kts 311°
2026-04-16 23:44 -35.49183 173.84050 8047 ft 241 kts 312°
2026-04-16 23:44 -35.48033 173.82554 8045 ft 241 kts 312°
2026-04-16 23:45 -35.46886 173.81060 8046 ft 241 kts 311°
2026-04-16 23:45 -35.46126 173.80071 8047 ft 241 kts 311°
2026-04-16 23:45 -35.44977 173.78577 8047 ft 241 kts 311°
2026-04-16 23:45 -35.43830 173.77085 8046 ft 240 kts 312°
2026-04-16 23:46 -35.42682 173.75592 8045 ft 241 kts 311°
2026-04-16 23:46 -35.41533 173.74101 8045 ft 240 kts 312°
2026-04-16 23:46 -35.40388 173.72613 8046 ft 240 kts 311°
2026-04-16 23:46 -35.39240 173.71123 8047 ft 241 kts 312°
2026-04-16 23:47 -35.38093 173.69634 8042 ft 240 kts 311°
2026-04-16 23:47 -35.36995 173.68103 8040 ft 237 kts 303°
2026-04-16 23:47 -35.36051 173.66422 7855 ft 241 kts 303°
2026-04-16 23:47 -35.35086 173.64732 7556 ft 243 kts 304°
2026-04-16 23:48 -35.34109 173.63027 7251 ft 246 kts 304°
2026-04-16 23:48 -35.33140 173.61333 6921 ft 235 kts 304°
2026-04-16 23:48 -35.32232 173.59746 6618 ft 220 kts 304°
2026-04-16 23:48 -35.31376 173.58248 6316 ft 209 kts 303°
2026-04-16 23:49 -35.30562 173.56823 6043 ft 200 kts 303°
2026-04-16 23:49 -35.29781 173.55456 5789 ft 193 kts 303°
2026-04-16 23:49 -35.29022 173.54128 5545 ft 188 kts 304°
2026-04-16 23:49 -35.28277 173.52827 5301 ft 185 kts 304°
2026-04-16 23:50 -35.27538 173.51537 5059 ft 184 kts 303°
2026-04-16 23:50 -35.26804 173.50253 4814 ft 184 kts 304°
2026-04-16 23:50 -35.26083 173.48996 4568 ft 182 kts 304°
2026-04-16 23:50 -35.25349 173.47720 4325 ft 180 kts 303°
2026-04-16 23:51 -35.24642 173.46479 4088 ft 182 kts 304°
2026-04-16 23:51 -35.23910 173.45212 3863 ft 183 kts 305°
2026-04-16 23:51 -35.23139 173.43958 3600 ft 186 kts 316°
2026-04-16 23:51 -35.22124 173.42991 3434 ft 184 kts 320°
2026-04-16 23:52 -35.21121 173.42031 3262 ft 183 kts 320°
2026-04-16 23:52 -35.20115 173.41069 3084 ft 184 kts 321°
2026-04-16 23:52 -35.19111 173.40122 2909 ft 181 kts 321°
2026-04-16 23:52 -35.18125 173.39194 2713 ft 171 kts 322°
2026-04-16 23:53 -35.17171 173.38274 2559 ft 181 kts 319°
2026-04-16 23:53 -35.16165 173.37303 2383 ft 185 kts 321°
2026-04-16 23:53 -35.15168 173.36364 2218 ft 176 kts 321°
2026-04-16 23:53 -35.14234 173.35483 2046 ft 158 kts 320°
2026-04-16 23:54 -35.13413 173.34705 1833 ft 142 kts 320°
2026-04-16 23:54 -35.12668 173.33997 1648 ft 127 kts 320°
2026-04-16 23:54 -35.12011 173.33395 1442 ft 113 kts 319°
2026-04-16 23:54 -35.11406 173.32810 1268 ft 113 kts 317°
2026-04-16 23:55 -35.10778 173.32168 1116 ft 123 kts 319°
2026-04-16 23:55 -35.10101 173.31530 988 ft 127 kts 320°
2026-04-16 23:55 -35.09391 173.30888 794 ft 126 kts 320°
2026-04-16 23:55 -35.08704 173.30236 690 ft 121 kts 319°
2026-04-16 23:56 -35.08063 173.29632 484 ft 112 kts 317°
2026-04-16 23:56 -35.07446 173.29046 309 ft 113 kts 321°
2026-04-16 23:56 -35.06810 173.28431 528 ft 119 kts 322°
2026-04-16 23:56 -35.06128 173.27789 887 ft 130 kts 320°
2026-04-16 23:57 -35.05345 173.27107 1373 ft 145 kts 322°
2026-04-16 23:57 -35.04510 173.26328 1863 ft 156 kts 320°
2026-04-16 23:57 -35.03600 173.25450 2063 ft 180 kts 320°
2026-04-16 23:57 -35.02550 173.24446 2072 ft 200 kts 321°
2026-04-16 23:58 -35.01438 173.23389 2073 ft 203 kts 321°
2026-04-16 23:58 -35.00320 173.22328 2079 ft 204 kts 321°
2026-04-16 23:58 -34.99202 173.21262 2069 ft 204 kts 321°
2026-04-16 23:58 -34.98084 173.20206 2062 ft 202 kts 322°
2026-04-16 23:59 -34.96980 173.19152 2063 ft 201 kts 321°
2026-04-16 23:59 -34.95901 173.18056 2066 ft 203 kts 319°
2026-04-16 23:59 -34.94777 173.17010 2037 ft 204 kts 322°
2026-04-16 23:59 -34.93647 173.15972 2028 ft 203 kts 321°
2026-04-17 00:00 -34.92546 173.14925 2085 ft 198 kts 321°
2026-04-17 00:00 -34.91476 173.13900 2200 ft 194 kts 321°
2026-04-17 00:00 -34.90474 173.12827 2315 ft 191 kts 306°
2026-04-17 00:00 -34.89990 173.11346 2418 ft 190 kts 277°
2026-04-17 00:01 -34.90169 173.09769 2536 ft 191 kts 249°
2026-04-17 00:01 -34.90989 173.08487 2655 ft 197 kts 219°
2026-04-17 00:01 -34.92261 173.07889 2775 ft 201 kts 187°
2026-04-17 00:01 -34.93634 173.08200 2891 ft 205 kts 155°
2026-04-17 00:02 -34.94670 173.09369 3009 ft 205 kts 120°
2026-04-17 00:02 -34.95069 173.11017 3130 ft 203 kts 97°
2026-04-17 00:02 -34.95233 173.12730 3264 ft 204 kts 96°
2026-04-17 00:02 -34.95391 173.14433 3388 ft 205 kts 96°
2026-04-17 00:03 -34.95562 173.16167 3515 ft 207 kts 96°
2026-04-17 00:03 -34.95919 173.17849 3646 ft 206 kts 123°
2026-04-17 00:03 -34.96938 173.19047 3791 ft 205 kts 155°
2026-04-17 00:03 -34.98298 173.19397 3951 ft 199 kts 186°
2026-04-17 00:04 -34.99570 173.18826 4020 ft 197 kts 224°
2026-04-17 00:04 -35.00118 173.17363 4075 ft 196 kts 272°
2026-04-17 00:04 -34.99578 173.15890 4074 ft 197 kts 319°
2026-04-17 00:04 -34.98305 173.15412 4075 ft 198 kts
2026-04-17 00:05 -34.96979 173.15871 4060 ft 198 kts 13°
2026-04-17 00:05 -34.95660 173.16326 4063 ft 198 kts 15°
2026-04-17 00:05 -34.94379 173.16956 4060 ft 201 kts 26°